createdAt,value
2022-12-09T00:00:28.656Z,0.98
2022-12-09T00:01:28.308Z,0.99
2022-12-09T00:02:29.676Z,0.96
2022-12-09T00:03:28.702Z,0.95
2022-12-09T00:04:28.587Z,0.88
2022-12-09T00:05:28.672Z,0.92
2022-12-09T00:06:28.263Z,0.88
2022-12-09T00:07:28.477Z,0.93
2022-12-09T00:08:28.544Z,0.95
2022-12-09T00:09:28.379Z,0.81
2022-12-09T00:10:28.251Z,0.84
2022-12-09T00:11:28.424Z,0.80
2022-12-09T00:12:28.212Z,0.84
2022-12-09T00:13:28.525Z,0.82
2022-12-09T00:14:28.175Z,0.82
2022-12-09T00:15:28.406Z,0.81
2022-12-09T00:16:28.287Z,0.82
2022-12-09T00:17:28.412Z,0.86
2022-12-09T00:18:28.406Z,0.74
2022-12-09T00:19:28.140Z,0.71
2022-12-09T00:20:31.211Z,0.75
2022-12-09T00:21:28.199Z,0.74
2022-12-09T00:22:29.364Z,0.68
2022-12-09T00:23:28.081Z,0.67
2022-12-09T00:24:28.164Z,0.68
2022-12-09T00:25:28.135Z,0.67
2022-12-09T00:26:28.162Z,0.67
2022-12-09T00:27:28.042Z,0.64
2022-12-09T00:28:30.156Z,0.71
2022-12-09T00:29:28.598Z,0.71
2022-12-09T00:30:28.190Z,0.64
2022-12-09T00:31:28.351Z,0.71
2022-12-09T00:32:28.059Z,0.74
2022-12-09T00:33:28.269Z,0.71
2022-12-09T00:34:28.029Z,0.70
2022-12-09T00:35:28.138Z,0.68
2022-12-09T00:36:27.941Z,0.74
2022-12-09T00:37:28.172Z,0.67
2022-12-09T00:38:27.969Z,0.57
2022-12-09T00:39:27.954Z,0.62
2022-12-09T00:40:28.173Z,0.53
2022-12-09T00:41:27.976Z,0.57
2022-12-09T00:42:28.066Z,0.62
2022-12-09T00:43:28.076Z,0.53
2022-12-09T00:44:27.967Z,0.57
2022-12-09T00:45:27.996Z,0.56
2022-12-09T00:46:27.939Z,0.56
2022-12-09T00:47:28.261Z,0.62
2022-12-09T00:48:27.860Z,0.62
2022-12-09T00:49:29.051Z,0.57
2022-12-09T00:50:27.842Z,0.53
2022-12-09T00:51:27.798Z,0.49
2022-12-09T00:52:28.859Z,0.43
2022-12-09T00:53:27.785Z,0.44
2022-12-09T00:54:28.188Z,0.44
2022-12-09T00:55:28.106Z,0.44
2022-12-09T00:56:27.877Z,0.37
2022-12-09T00:57:27.831Z,0.49
2022-12-09T00:58:28.092Z,0.53
2022-12-09T00:59:28.016Z,0.57
2022-12-09T01:00:28.165Z,0.56
2022-12-09T01:01:27.866Z,0.56
2022-12-09T01:02:34.787Z,0.52
2022-12-09T01:03:27.931Z,0.48
2022-12-09T01:04:27.995Z,0.60
2022-12-09T01:05:27.774Z,0.49
2022-12-09T01:06:27.756Z,0.40
2022-12-09T01:07:27.738Z,0.26
2022-12-09T01:08:27.970Z,0.33
2022-12-09T01:09:28.046Z,0.26
2022-12-09T01:10:27.573Z,0.37
2022-12-09T01:11:27.827Z,0.31
2022-12-09T01:12:27.553Z,0.45
2022-12-09T01:13:27.633Z,0.56
2022-12-09T01:14:27.561Z,0.63
2022-12-09T01:15:27.885Z,0.70
2022-12-09T01:16:27.662Z,0.72
2022-12-09T01:17:27.626Z,0.75
2022-12-09T01:18:27.601Z,0.89
2022-12-09T01:19:27.535Z,0.81
2022-12-09T01:20:27.624Z,0.84
2022-12-09T01:21:27.468Z,0.92
2022-12-09T01:22:27.462Z,0.89
2022-12-09T01:23:27.436Z,0.92
2022-12-09T01:24:27.645Z,0.92
2022-12-09T01:25:27.412Z,0.89
2022-12-09T01:26:27.450Z,0.96
2022-12-09T01:27:27.680Z,0.98
2022-12-09T01:28:27.675Z,1.06
2022-12-09T01:29:27.631Z,0.96
2022-12-09T01:30:27.745Z,0.92
2022-12-09T01:31:27.470Z,0.86
2022-12-09T01:32:27.710Z,0.72
2022-12-09T01:33:27.522Z,0.64
2022-12-09T01:34:27.553Z,0.62
2022-12-09T01:35:27.521Z,0.71
2022-12-09T01:36:27.301Z,0.71
2022-12-09T01:37:27.653Z,0.88
2022-12-09T01:38:27.320Z,0.95
2022-12-09T01:39:27.391Z,1.02
2022-12-09T01:40:27.493Z,0.96
2022-12-09T01:41:27.503Z,1.14
2022-12-09T01:42:28.299Z,1.24
2022-12-09T01:43:27.442Z,1.24
2022-12-09T01:44:27.337Z,1.29
2022-12-09T01:45:27.386Z,1.32
2022-12-09T01:46:27.504Z,1.17
2022-12-09T01:47:27.834Z,1.29
2022-12-09T01:48:27.404Z,1.38
2022-12-09T01:49:27.157Z,1.25
2022-12-09T01:50:27.329Z,1.34
2022-12-09T01:51:27.360Z,1.38
2022-12-09T01:52:29.262Z,1.38
2022-12-09T01:53:27.109Z,1.39
2022-12-09T01:54:28.115Z,1.32
2022-12-09T01:55:27.194Z,1.44
2022-12-09T01:56:28.309Z,1.44
2022-12-09T01:57:27.063Z,1.39
2022-12-09T01:58:28.389Z,1.39
2022-12-09T01:59:27.175Z,1.47
2022-12-09T02:00:27.393Z,1.36
2022-12-09T02:01:27.202Z,1.35
2022-12-09T02:02:27.157Z,1.35
2022-12-09T02:03:27.204Z,1.36
2022-12-09T02:04:27.507Z,1.35
2022-12-09T02:05:27.417Z,1.38
2022-12-09T02:06:27.113Z,1.28
2022-12-09T02:07:28.199Z,1.35
2022-12-09T02:08:27.601Z,1.29
2022-12-09T02:09:28.320Z,1.39
2022-12-09T02:10:27.323Z,1.43
2022-12-09T02:11:27.164Z,1.38
2022-12-09T02:12:26.906Z,1.38
2022-12-09T02:13:26.979Z,1.43
2022-12-09T02:14:26.890Z,1.44
2022-12-09T02:15:27.260Z,1.49
2022-12-09T02:16:27.001Z,1.52
2022-12-09T02:17:27.115Z,1.43
2022-12-09T02:18:26.933Z,1.60
2022-12-09T02:19:27.317Z,1.56
2022-12-09T02:20:27.083Z,1.54
2022-12-09T02:21:27.107Z,1.57
2022-12-09T02:22:27.885Z,1.63
2022-12-09T02:23:26.833Z,1.50
2022-12-09T02:24:27.993Z,1.52
2022-12-09T02:25:27.105Z,1.53
2022-12-09T02:26:26.826Z,1.57
2022-12-09T02:27:26.951Z,1.63
2022-12-09T02:28:27.076Z,1.64
2022-12-09T02:29:27.030Z,1.63
2022-12-09T02:30:29.093Z,1.65
2022-12-09T02:31:27.171Z,1.64
2022-12-09T02:32:31.538Z,1.65
2022-12-09T02:33:26.856Z,1.64
2022-12-09T02:34:28.855Z,1.67
2022-12-09T02:35:26.878Z,1.57
2022-12-09T02:36:29.048Z,1.57
2022-12-09T02:37:26.897Z,1.63
2022-12-09T02:38:26.709Z,1.56
2022-12-09T02:39:26.717Z,1.63
2022-12-09T02:40:26.893Z,1.64
2022-12-09T02:41:26.907Z,1.56
2022-12-09T02:42:29.576Z,1.50
2022-12-09T02:43:26.847Z,1.47
2022-12-09T02:44:26.823Z,1.54
2022-12-09T02:45:26.874Z,1.47
2022-12-09T02:46:26.720Z,1.49
2022-12-09T02:47:26.697Z,1.47
2022-12-09T02:48:26.633Z,1.49
2022-12-09T02:49:26.832Z,1.49
2022-12-09T02:50:26.627Z,1.38
2022-12-09T02:51:26.484Z,1.43
2022-12-09T02:52:27.106Z,1.43
2022-12-09T02:53:26.510Z,1.47
2022-12-09T02:54:26.881Z,1.43
2022-12-09T02:55:26.739Z,1.52
2022-12-09T02:56:26.628Z,1.39
2022-12-09T02:57:26.424Z,1.46
2022-12-09T02:58:26.660Z,1.61
2022-12-09T02:59:26.456Z,1.63
2022-12-09T03:00:26.548Z,1.63
2022-12-09T03:01:26.604Z,1.63
2022-12-09T03:02:26.695Z,1.63
2022-12-09T03:03:26.575Z,1.60
2022-12-09T03:04:26.521Z,1.64
2022-12-09T03:05:26.620Z,1.60
2022-12-09T03:06:27.156Z,1.63
2022-12-09T03:07:26.728Z,1.64
2022-12-09T03:08:26.354Z,1.61
2022-12-09T03:09:26.598Z,1.65
2022-12-09T03:10:33.272Z,1.65
2022-12-09T03:11:26.572Z,1.67
2022-12-09T03:12:27.084Z,1.65
2022-12-09T03:13:26.372Z,1.64
2022-12-09T03:14:26.696Z,1.64
2022-12-09T03:15:26.394Z,1.65
2022-12-09T03:16:27.159Z,1.71
2022-12-09T03:17:26.524Z,1.64
2022-12-09T03:18:26.273Z,1.72
2022-12-09T03:19:27.412Z,1.65
2022-12-09T03:20:26.480Z,1.85
2022-12-09T03:21:26.222Z,1.67
2022-12-09T03:22:26.189Z,1.70
2022-12-09T03:23:26.273Z,1.63
2022-12-09T03:24:26.206Z,1.63
2022-12-09T03:25:26.394Z,1.63
2022-12-09T03:26:26.386Z,1.67
2022-12-09T03:27:26.548Z,1.67
2022-12-09T03:28:26.212Z,1.67
2022-12-09T03:29:26.236Z,1.61
2022-12-09T03:30:26.095Z,1.72
2022-12-09T03:31:26.415Z,1.77
2022-12-09T03:32:26.154Z,1.75
2022-12-09T03:33:26.518Z,1.82
2022-12-09T03:34:26.236Z,1.82
2022-12-09T03:35:27.374Z,1.83
2022-12-09T03:36:26.043Z,1.83
2022-12-09T03:37:26.121Z,1.81
2022-12-09T03:38:26.104Z,1.92
2022-12-09T03:39:26.257Z,1.90
2022-12-09T03:40:26.283Z,1.81
2022-12-09T03:41:26.384Z,1.85
2022-12-09T03:42:25.929Z,1.86
2022-12-09T03:43:26.102Z,1.86
2022-12-09T03:44:26.118Z,1.93
2022-12-09T03:45:26.109Z,1.86
2022-12-09T03:46:26.073Z,1.85
2022-12-09T03:47:25.973Z,1.83
2022-12-09T03:48:26.577Z,1.86
2022-12-09T03:49:25.956Z,1.92
2022-12-09T03:50:25.941Z,1.95
2022-12-09T03:51:26.059Z,1.86
2022-12-09T03:52:25.941Z,1.93
2022-12-09T03:53:26.150Z,1.95
2022-12-09T03:54:25.787Z,2.00
2022-12-09T03:55:26.000Z,1.98
2022-12-09T03:56:25.890Z,2.04
2022-12-09T03:57:26.035Z,2.00
2022-12-09T03:58:25.779Z,1.98
2022-12-09T03:59:25.917Z,2.02
2022-12-09T04:00:28.808Z,2.01
2022-12-09T04:01:26.132Z,2.02
2022-12-09T04:02:26.418Z,2.00
2022-12-09T04:03:25.859Z,2.02
2022-12-09T04:04:27.072Z,2.05
2022-12-09T04:05:25.893Z,2.04
2022-12-09T04:06:25.913Z,2.01
2022-12-09T04:07:25.649Z,1.93
2022-12-09T04:08:26.009Z,1.98
2022-12-09T04:09:25.980Z,1.95
2022-12-09T04:10:25.696Z,1.92
2022-12-09T04:11:25.715Z,2.02
2022-12-09T04:12:25.983Z,1.98
2022-12-09T04:13:25.653Z,2.00
2022-12-09T04:14:26.165Z,2.00
2022-12-09T04:15:25.946Z,1.95
2022-12-09T04:16:26.016Z,2.02
2022-12-09T04:17:25.841Z,2.02
2022-12-09T04:18:25.739Z,1.98
2022-12-09T04:19:25.534Z,1.93
2022-12-09T04:20:25.787Z,2.05
2022-12-09T04:21:25.576Z,2.05
2022-12-09T04:22:25.721Z,1.98
2022-12-09T04:23:25.470Z,2.01
2022-12-09T04:24:25.850Z,2.04
2022-12-09T04:25:25.611Z,2.01
2022-12-09T04:26:25.804Z,2.02
2022-12-09T04:27:25.432Z,2.02
2022-12-09T04:28:25.465Z,2.04
2022-12-09T04:29:25.403Z,2.05
2022-12-09T04:30:25.730Z,2.02
2022-12-09T04:31:25.765Z,2.02
2022-12-09T04:32:25.516Z,2.01
2022-12-09T04:33:25.366Z,1.95
2022-12-09T04:34:25.870Z,2.04
2022-12-09T04:35:25.715Z,2.01
2022-12-09T04:36:25.664Z,1.93
2022-12-09T04:37:25.758Z,1.93
2022-12-09T04:38:25.314Z,2.01
2022-12-09T04:39:25.305Z,1.98
2022-12-09T04:40:25.825Z,2.01
2022-12-09T04:41:25.367Z,1.85
2022-12-09T04:42:25.481Z,1.95
2022-12-09T04:43:25.661Z,2.00
2022-12-09T04:44:25.360Z,1.90
2022-12-09T04:45:25.660Z,1.95
2022-12-09T04:46:26.100Z,1.95
2022-12-09T04:47:25.459Z,1.95
2022-12-09T04:48:25.329Z,2.02
2022-12-09T04:49:25.228Z,1.95
2022-12-09T04:50:25.370Z,1.90
2022-12-09T04:51:25.313Z,1.74
2022-12-09T04:52:26.418Z,1.65
2022-12-09T04:53:25.141Z,1.67
2022-12-09T04:54:25.450Z,1.64
2022-12-09T04:55:25.347Z,1.65
2022-12-09T04:56:25.200Z,1.54
2022-12-09T04:57:25.128Z,1.64
2022-12-09T04:58:25.448Z,1.63
2022-12-09T04:59:25.119Z,1.67
2022-12-09T05:00:25.298Z,1.72
2022-12-09T05:01:30.607Z,1.64
2022-12-09T05:02:26.261Z,1.64
2022-12-09T05:03:25.550Z,1.79
2022-12-09T05:04:25.525Z,1.83
2022-12-09T05:05:25.181Z,1.82
2022-12-09T05:06:25.231Z,1.81
2022-12-09T05:07:25.382Z,1.77
2022-12-09T05:08:31.234Z,1.86
2022-12-09T05:09:26.482Z,1.85
2022-12-09T05:10:25.125Z,1.89
2022-12-09T05:11:25.286Z,1.92
2022-12-09T05:12:25.300Z,1.95
2022-12-09T05:13:25.319Z,1.95
2022-12-09T05:14:25.283Z,1.93
2022-12-09T05:15:25.242Z,1.93
2022-12-09T05:16:25.089Z,1.98
2022-12-09T05:17:25.451Z,1.93
2022-12-09T05:18:24.958Z,1.93
2022-12-09T05:19:25.041Z,1.98
2022-12-09T05:20:24.890Z,1.95
2022-12-09T05:21:25.282Z,1.90
2022-12-09T05:22:25.018Z,1.90
2022-12-09T05:23:24.992Z,2.01
2022-12-09T05:24:24.889Z,1.93
2022-12-09T05:25:25.043Z,1.93
2022-12-09T05:26:25.117Z,1.98
2022-12-09T05:27:24.996Z,1.95
2022-12-09T05:28:24.820Z,1.89
2022-12-09T05:29:24.890Z,1.93
2022-12-09T05:30:25.101Z,1.86
2022-12-09T05:31:25.196Z,1.88
2022-12-09T05:32:25.320Z,1.85
2022-12-09T05:33:25.126Z,1.83
2022-12-09T05:34:25.146Z,1.81
2022-12-09T05:35:24.866Z,1.86
2022-12-09T05:36:25.350Z,1.82
2022-12-09T05:37:24.735Z,1.81
2022-12-09T05:38:25.170Z,1.77
2022-12-09T05:39:24.702Z,1.83
2022-12-09T05:40:24.890Z,1.82
2022-12-09T05:41:25.204Z,1.82
2022-12-09T05:42:24.814Z,1.75
2022-12-09T05:43:24.921Z,1.70
2022-12-09T05:44:25.794Z,1.65
2022-12-09T05:45:24.610Z,1.67
2022-12-09T05:46:25.078Z,1.64
2022-12-09T05:47:24.908Z,1.64
2022-12-09T05:48:25.005Z,1.63
2022-12-09T05:49:24.730Z,1.64
2022-12-09T05:50:25.951Z,1.64
2022-12-09T05:51:24.717Z,1.70
2022-12-09T05:52:24.607Z,1.65
2022-12-09T05:53:24.790Z,1.72
2022-12-09T05:54:24.618Z,1.75
2022-12-09T05:55:24.834Z,1.64
2022-12-09T05:56:24.711Z,1.67
2022-12-09T05:57:24.931Z,1.70
2022-12-09T05:58:24.657Z,1.68
2022-12-09T05:59:24.820Z,1.65
2022-12-09T06:00:24.499Z,1.65
2022-12-09T06:01:24.486Z,1.67
2022-12-09T06:02:24.811Z,1.61
2022-12-09T06:03:25.116Z,1.63
2022-12-09T06:04:24.622Z,1.75
2022-12-09T06:05:24.558Z,1.67
2022-12-09T06:06:24.827Z,1.82
2022-12-09T06:07:24.622Z,1.74
2022-12-09T06:08:24.671Z,1.72
2022-12-09T06:09:24.506Z,1.77
2022-12-09T06:10:24.827Z,1.82
2022-12-09T06:11:24.752Z,1.79
2022-12-09T06:12:24.510Z,1.79
2022-12-09T06:13:24.645Z,1.74
2022-12-09T06:14:24.260Z,1.79
2022-12-09T06:15:28.100Z,1.82
2022-12-09T06:16:25.981Z,1.75
2022-12-09T06:17:24.355Z,1.81
2022-12-09T06:18:24.513Z,1.77
2022-12-09T06:19:24.688Z,1.81
2022-12-09T06:20:24.543Z,1.81
2022-12-09T06:21:24.509Z,1.85
2022-12-09T06:22:24.242Z,1.81
2022-12-09T06:23:24.244Z,1.81
2022-12-09T06:24:24.615Z,1.79
2022-12-09T06:25:24.216Z,1.79
2022-12-09T06:26:24.572Z,1.71
2022-12-09T06:27:24.143Z,1.64
2022-12-09T06:28:24.477Z,1.72
2022-12-09T06:29:24.165Z,1.70
2022-12-09T06:30:24.128Z,1.67
2022-12-09T06:31:24.230Z,1.67
2022-12-09T06:32:24.502Z,1.65
2022-12-09T06:33:52.981Z,1.64
2022-12-09T06:34:25.457Z,1.64
2022-12-09T06:35:24.377Z,1.65
2022-12-09T06:36:24.223Z,1.63
2022-12-09T06:37:24.180Z,1.63
2022-12-09T06:38:24.338Z,1.60
2022-12-09T06:39:24.067Z,1.65
2022-12-09T06:40:24.308Z,1.61
2022-12-09T06:41:24.427Z,1.65
2022-12-09T06:42:24.294Z,1.63
2022-12-09T06:43:24.182Z,1.64
2022-12-09T06:44:24.511Z,1.71
2022-12-09T06:45:24.196Z,1.64
2022-12-09T06:46:24.825Z,1.64
2022-12-09T06:47:25.045Z,1.71
2022-12-09T06:48:24.316Z,1.71
2022-12-09T06:49:24.192Z,1.77
2022-12-09T06:50:24.350Z,1.64
2022-12-09T06:51:24.307Z,1.71
2022-12-09T06:52:25.306Z,1.79
2022-12-09T06:53:24.181Z,1.81
2022-12-09T06:54:24.261Z,1.81
2022-12-09T06:55:23.992Z,1.88
2022-12-09T06:56:24.037Z,1.83
2022-12-09T06:57:23.976Z,1.81
2022-12-09T06:58:23.857Z,1.86
2022-12-09T06:59:24.135Z,1.79
2022-12-09T07:00:23.934Z,1.81
2022-12-09T07:01:24.101Z,1.85
2022-12-09T07:02:24.021Z,1.93
2022-12-09T07:03:24.454Z,1.90
2022-12-09T07:04:24.175Z,1.86
2022-12-09T07:05:24.267Z,1.82
2022-12-09T07:06:23.891Z,1.82
2022-12-09T07:07:24.011Z,1.83
2022-12-09T07:08:24.091Z,1.85
2022-12-09T07:09:23.928Z,1.95
2022-12-09T07:10:23.840Z,1.95
2022-12-09T07:11:24.075Z,1.93
2022-12-09T07:12:24.094Z,2.02
2022-12-09T07:13:23.627Z,2.05
2022-12-09T07:14:24.054Z,2.00
2022-12-09T07:15:23.667Z,2.00
2022-12-09T07:16:23.950Z,2.02
2022-12-09T07:17:24.000Z,2.02
2022-12-09T07:18:23.742Z,2.01
2022-12-09T07:19:24.010Z,2.00
2022-12-09T07:20:23.823Z,2.09
2022-12-09T07:21:23.980Z,2.04
2022-12-09T07:22:23.855Z,2.11
2022-12-09T07:23:23.685Z,2.04
2022-12-09T07:24:23.759Z,2.02
2022-12-09T07:25:23.905Z,2.14
2022-12-09T07:26:23.698Z,2.00
2022-12-09T07:27:23.489Z,2.02
2022-12-09T07:28:23.451Z,2.02
2022-12-09T07:29:23.556Z,2.05
2022-12-09T07:30:23.842Z,1.98
2022-12-09T07:31:23.647Z,2.02
2022-12-09T07:32:23.629Z,2.01
2022-12-09T07:33:23.459Z,2.04
2022-12-09T07:34:23.602Z,2.04
2022-12-09T07:35:23.612Z,2.05
2022-12-09T07:36:24.327Z,1.79
2022-12-09T07:37:23.385Z,1.75
2022-12-09T07:38:23.714Z,1.68
2022-12-09T07:39:23.584Z,1.70
2022-12-09T07:40:24.623Z,1.71
2022-12-09T07:41:23.613Z,1.77
2022-12-09T07:42:23.444Z,1.83
2022-12-09T07:43:23.718Z,1.92
2022-12-09T07:44:23.493Z,1.86
2022-12-09T07:45:23.328Z,1.95
2022-12-09T07:46:23.497Z,1.95
2022-12-09T07:47:23.316Z,1.98
2022-12-09T07:48:23.388Z,2.02
2022-12-09T07:49:23.461Z,2.00
2022-12-09T07:50:23.429Z,2.01
2022-12-09T07:51:23.511Z,2.04
2022-12-09T07:52:23.568Z,2.07
2022-12-09T07:53:23.640Z,2.08
2022-12-09T07:54:23.228Z,2.08
2022-12-09T07:55:23.475Z,2.04
2022-12-09T07:56:23.412Z,2.11
2022-12-09T07:57:23.179Z,2.08
2022-12-09T07:58:23.370Z,2.09
2022-12-09T07:59:23.549Z,2.15
2022-12-09T08:00:23.322Z,2.22
2022-12-09T08:01:23.197Z,2.15
2022-12-09T08:02:23.447Z,2.09
2022-12-09T08:03:23.199Z,2.11
2022-12-09T08:04:23.714Z,2.15
2022-12-09T08:05:23.623Z,2.19
2022-12-09T08:06:23.609Z,2.19
2022-12-09T08:07:23.705Z,2.20
2022-12-09T08:08:23.368Z,2.29
2022-12-09T08:09:23.315Z,2.22
2022-12-09T08:10:23.124Z,2.27
2022-12-09T08:11:23.512Z,2.29
2022-12-09T08:12:23.059Z,2.25
2022-12-09T08:13:23.132Z,2.25
2022-12-09T08:14:23.433Z,2.15
2022-12-09T08:15:23.269Z,2.29
2022-12-09T08:16:24.404Z,2.27
2022-12-09T08:17:23.030Z,2.22
2022-12-09T08:18:23.127Z,2.32
2022-12-09T08:19:23.133Z,2.25
2022-12-09T08:20:27.537Z,2.19
2022-12-09T08:21:24.296Z,2.18
2022-12-09T08:22:23.025Z,2.05
2022-12-09T08:23:22.933Z,2.02
2022-12-09T08:24:22.975Z,1.92
2022-12-09T08:25:23.030Z,1.85
2022-12-09T08:26:23.174Z,1.88
2022-12-09T08:27:23.182Z,2.01
2022-12-09T08:28:23.235Z,2.04
2022-12-09T08:29:23.058Z,1.95
2022-12-09T08:30:23.341Z,2.04
2022-12-09T08:31:23.302Z,2.11
2022-12-09T08:32:23.253Z,2.12
2022-12-09T08:33:22.999Z,2.23
2022-12-09T08:34:23.143Z,2.19
2022-12-09T08:35:23.040Z,2.26
2022-12-09T08:36:23.105Z,2.26
2022-12-09T08:37:22.938Z,2.33
2022-12-09T08:38:22.815Z,2.33
2022-12-09T08:39:22.746Z,2.36
2022-12-09T08:40:22.993Z,2.38
2022-12-09T08:41:22.987Z,2.40
2022-12-09T08:42:23.046Z,2.38
2022-12-09T08:43:22.750Z,2.48
2022-12-09T08:44:22.823Z,2.33
2022-12-09T08:45:23.005Z,2.38
2022-12-09T08:46:22.696Z,2.44
2022-12-09T08:47:23.049Z,2.44
2022-12-09T08:48:23.025Z,2.36
2022-12-09T08:49:23.216Z,2.40
2022-12-09T08:50:22.725Z,2.32
2022-12-09T08:51:22.865Z,2.40
2022-12-09T08:52:23.996Z,2.44
2022-12-09T08:53:22.822Z,2.37
2022-12-09T08:54:22.613Z,2.43
2022-12-09T08:55:22.761Z,2.45
2022-12-09T08:56:22.501Z,2.50
2022-12-09T08:57:22.835Z,2.51
2022-12-09T08:58:22.574Z,2.50
2022-12-09T08:59:22.993Z,2.40
2022-12-09T09:00:22.585Z,2.51
2022-12-09T09:01:22.637Z,2.56
2022-12-09T09:02:22.844Z,2.53
2022-12-09T09:03:22.705Z,2.56
2022-12-09T09:04:22.964Z,2.48
2022-12-09T09:05:22.925Z,2.53
2022-12-09T09:06:22.880Z,2.45
2022-12-09T09:07:22.795Z,2.41
2022-12-09T09:08:22.798Z,2.44
2022-12-09T09:09:22.631Z,2.48
2022-12-09T09:10:22.525Z,2.56
2022-12-09T09:11:22.523Z,2.53
2022-12-09T09:12:22.749Z,2.58
2022-12-09T09:13:22.529Z,2.53
2022-12-09T09:14:22.844Z,2.62
2022-12-09T09:15:22.656Z,2.58
2022-12-09T09:16:22.662Z,2.61
2022-12-09T09:17:22.838Z,2.63
2022-12-09T09:18:22.335Z,2.59
2022-12-09T09:19:22.668Z,2.55
2022-12-09T09:20:22.529Z,2.65
2022-12-09T09:21:23.524Z,2.55
2022-12-09T09:22:22.288Z,2.65
2022-12-09T09:23:22.230Z,2.63
2022-12-09T09:24:22.357Z,2.59
2022-12-09T09:25:22.429Z,2.63
2022-12-09T09:26:22.258Z,2.61
2022-12-09T09:27:22.408Z,2.62
2022-12-09T09:28:26.056Z,2.56
2022-12-09T09:29:23.744Z,2.47
2022-12-09T09:30:22.723Z,2.43
2022-12-09T09:31:22.298Z,2.38
2022-12-09T09:32:22.346Z,2.23
2022-12-09T09:33:22.509Z,2.27
2022-12-09T09:34:22.317Z,2.22
2022-12-09T09:35:22.189Z,2.22
2022-12-09T09:36:22.548Z,2.37
2022-12-09T09:37:22.093Z,2.33
2022-12-09T09:38:22.521Z,2.38
2022-12-09T09:39:22.390Z,2.36
2022-12-09T09:40:22.525Z,2.37
2022-12-09T09:41:22.492Z,2.33
2022-12-09T09:42:22.248Z,2.41
2022-12-09T09:43:22.134Z,2.36
2022-12-09T09:44:21.968Z,2.41
2022-12-09T09:45:22.091Z,2.51
2022-12-09T09:46:22.423Z,2.51
2022-12-09T09:47:22.440Z,2.53
2022-12-09T09:48:22.382Z,2.59
2022-12-09T09:49:22.182Z,2.59
2022-12-09T09:50:22.200Z,2.59
2022-12-09T09:51:21.946Z,2.73
2022-12-09T09:52:21.995Z,2.62
2022-12-09T09:53:22.142Z,2.74
2022-12-09T09:54:22.085Z,2.80
2022-12-09T09:55:21.882Z,2.71
2022-12-09T09:56:21.888Z,2.71
2022-12-09T09:57:22.139Z,2.77
2022-12-09T09:58:22.286Z,2.62
2022-12-09T09:59:22.262Z,2.51
2022-12-09T10:00:22.875Z,2.41
2022-12-09T10:01:23.148Z,2.61
2022-12-09T10:02:21.978Z,2.45
2022-12-09T10:03:21.954Z,2.56
2022-12-09T10:04:21.965Z,2.51
2022-12-09T10:05:21.937Z,2.38
2022-12-09T10:06:21.936Z,2.33
2022-12-09T10:07:22.019Z,2.23
2022-12-09T10:08:21.964Z,2.27
2022-12-09T10:09:22.017Z,2.20
2022-12-09T10:10:22.023Z,2.25
2022-12-09T10:11:22.210Z,2.22
2022-12-09T10:12:22.371Z,2.23
2022-12-09T10:13:21.858Z,2.26
2022-12-09T10:14:22.287Z,2.29
2022-12-09T10:15:21.849Z,2.33
2022-12-09T10:16:21.982Z,2.37
2022-12-09T10:17:22.106Z,2.43
2022-12-09T10:18:21.905Z,2.45
2022-12-09T10:19:21.723Z,2.37
2022-12-09T10:20:22.282Z,2.37
2022-12-09T10:21:21.795Z,2.38
2022-12-09T10:22:22.197Z,2.36
2022-12-09T10:23:21.726Z,2.38
2022-12-09T10:24:22.124Z,2.36
2022-12-09T10:25:22.068Z,2.33
2022-12-09T10:26:21.943Z,2.41
2022-12-09T10:27:21.850Z,2.37
2022-12-09T10:28:21.587Z,2.51
2022-12-09T10:29:21.484Z,2.48
2022-12-09T10:30:21.728Z,2.48
2022-12-09T10:31:21.879Z,2.59
2022-12-09T10:32:21.746Z,2.62
2022-12-09T10:33:21.658Z,2.59
2022-12-09T10:34:22.039Z,2.63
2022-12-09T10:35:21.780Z,2.66
2022-12-09T10:36:21.460Z,2.59
2022-12-09T10:37:21.628Z,2.56
2022-12-09T10:38:21.535Z,2.59
2022-12-09T10:39:21.909Z,2.63
2022-12-09T10:40:21.966Z,2.76
2022-12-09T10:41:21.711Z,2.65
2022-12-09T10:42:21.455Z,2.74
2022-12-09T10:43:21.406Z,2.80
2022-12-09T10:44:21.779Z,2.89
2022-12-09T10:45:21.693Z,2.92
2022-12-09T10:46:22.086Z,3.01
2022-12-09T10:47:21.617Z,3.04
2022-12-09T10:48:21.804Z,3.01
2022-12-09T10:49:21.733Z,3.08
2022-12-09T10:50:21.444Z,2.97
2022-12-09T10:51:21.643Z,2.90
2022-12-09T10:52:21.582Z,2.71
2022-12-09T10:53:21.393Z,2.69
2022-12-09T10:54:22.218Z,2.61
2022-12-09T10:55:21.519Z,2.62
2022-12-09T10:56:21.693Z,2.61
2022-12-09T10:57:21.441Z,2.73
2022-12-09T10:58:21.246Z,2.69
2022-12-09T10:59:21.183Z,2.79
2022-12-09T11:00:21.659Z,2.89
2022-12-09T11:01:21.134Z,2.86
2022-12-09T11:02:21.339Z,2.94
2022-12-09T11:03:21.209Z,2.99
2022-12-09T11:04:21.240Z,2.92
2022-12-09T11:05:21.625Z,3.02
2022-12-09T11:06:21.729Z,3.08
2022-12-09T11:07:21.168Z,3.05
2022-12-09T11:08:21.302Z,3.07
2022-12-09T11:09:22.384Z,2.99
2022-12-09T11:10:22.158Z,3.05
2022-12-09T11:11:21.603Z,3.10
2022-12-09T11:12:21.311Z,3.08
2022-12-09T11:13:21.055Z,3.19
2022-12-09T11:14:21.074Z,3.08
2022-12-09T11:15:21.289Z,3.17
2022-12-09T11:16:21.215Z,3.19
2022-12-09T11:17:21.146Z,3.08
2022-12-09T11:18:21.322Z,3.13
2022-12-09T11:19:21.491Z,3.07
2022-12-09T11:20:21.299Z,3.02
2022-12-09T11:21:21.161Z,2.92
2022-12-09T11:22:21.408Z,2.86
2022-12-09T11:23:21.288Z,2.99
2022-12-09T11:24:21.285Z,2.90
2022-12-09T11:25:21.031Z,2.97
2022-12-09T11:26:20.913Z,2.90
2022-12-09T11:27:21.214Z,2.98
2022-12-09T11:28:20.969Z,3.01
2022-12-09T11:29:22.137Z,2.83
2022-12-09T11:30:21.938Z,2.71
2022-12-09T11:31:29.426Z,2.65
2022-12-09T11:32:21.811Z,2.62
2022-12-09T11:33:21.260Z,2.71
2022-12-09T11:34:20.944Z,2.81
2022-12-09T11:35:21.036Z,2.77
2022-12-09T11:36:20.733Z,2.89
2022-12-09T11:37:20.714Z,2.76
2022-12-09T11:38:20.702Z,2.65
2022-12-09T11:39:20.692Z,2.66
2022-12-09T11:40:20.672Z,2.63
2022-12-09T11:41:20.684Z,2.61
2022-12-09T11:42:20.653Z,2.68
2022-12-09T11:43:20.638Z,2.80
2022-12-09T11:44:20.634Z,2.90
2022-12-09T11:45:20.621Z,2.99
2022-12-09T11:46:21.714Z,2.94
2022-12-09T11:47:20.651Z,3.10
2022-12-09T11:48:30.308Z,3.19
2022-12-09T11:49:21.574Z,3.22
2022-12-09T11:50:20.616Z,3.17
2022-12-09T11:51:21.527Z,3.31
2022-12-09T11:52:20.549Z,3.31
2022-12-09T11:53:20.554Z,3.33
2022-12-09T11:54:20.531Z,3.30
2022-12-09T11:55:21.037Z,3.30
2022-12-09T11:56:20.492Z,3.25
2022-12-09T11:57:20.565Z,3.22
2022-12-09T11:58:20.475Z,3.31
2022-12-09T11:59:23.027Z,3.22
2022-12-09T12:00:20.456Z,3.22
2022-12-09T12:01:20.480Z,3.23
2022-12-09T12:02:20.528Z,3.22
2022-12-09T12:03:20.529Z,3.17
2022-12-09T12:04:20.405Z,3.30
2022-12-09T12:05:23.022Z,3.41
2022-12-09T12:06:20.391Z,3.44
2022-12-09T12:07:20.392Z,3.42
2022-12-09T12:08:20.485Z,3.54
2022-12-09T12:09:20.403Z,3.52
2022-12-09T12:10:20.338Z,3.59
2022-12-09T12:11:20.338Z,3.54
2022-12-09T12:12:20.333Z,3.31
2022-12-09T12:13:20.308Z,3.28
2022-12-09T12:14:20.305Z,3.13
2022-12-09T12:15:21.013Z,2.90
2022-12-09T12:16:20.288Z,2.76
2022-12-09T12:17:20.317Z,2.69
2022-12-09T12:18:20.274Z,2.76
2022-12-09T12:19:20.271Z,2.86
2022-12-09T12:20:20.255Z,2.98
2022-12-09T12:21:20.257Z,3.05
2022-12-09T12:22:20.212Z,3.05
2022-12-09T12:23:20.209Z,3.19
2022-12-09T12:24:20.215Z,3.26
2022-12-09T12:25:20.756Z,3.25
2022-12-09T12:26:20.169Z,3.41
2022-12-09T12:27:20.172Z,3.35
2022-12-09T12:28:20.163Z,3.39
2022-12-09T12:29:20.153Z,3.39
2022-12-09T12:30:20.133Z,3.41
2022-12-09T12:31:20.215Z,3.34
2022-12-09T12:32:20.110Z,3.37
2022-12-09T12:34:25.284Z,3.39
2022-12-09T12:35:20.100Z,3.31
2022-12-09T12:36:20.067Z,3.35
2022-12-09T12:37:20.060Z,3.22
2022-12-09T12:38:20.056Z,3.05
2022-12-09T12:39:21.055Z,2.92
2022-12-09T12:40:26.420Z,2.95
2022-12-09T12:41:21.053Z,2.90
2022-12-09T12:42:20.018Z,3.04
2022-12-09T12:43:19.992Z,2.98
2022-12-09T12:44:20.960Z,2.94
2022-12-09T12:45:19.973Z,2.94
2022-12-09T12:46:20.062Z,3.08
2022-12-09T12:47:19.971Z,3.15
2022-12-09T12:48:19.972Z,3.23
2022-12-09T12:49:19.929Z,3.23
2022-12-09T12:50:20.066Z,3.22
2022-12-09T12:51:22.525Z,3.17
2022-12-09T12:52:54.144Z,3.23
2022-12-09T12:53:20.880Z,3.12
2022-12-09T12:54:19.911Z,2.98
2022-12-09T12:55:19.865Z,2.74
2022-12-09T12:56:19.854Z,2.76
2022-12-09T12:57:19.842Z,2.80
2022-12-09T12:58:22.526Z,2.77
2022-12-09T12:59:19.819Z,2.84
2022-12-09T13:00:19.831Z,2.90
2022-12-09T13:01:19.884Z,2.81
2022-12-09T13:02:19.862Z,2.86
2022-12-09T13:03:19.783Z,2.71
2022-12-09T13:04:19.800Z,2.73
2022-12-09T13:05:19.762Z,2.76
2022-12-09T13:06:19.765Z,2.71
2022-12-09T13:07:19.729Z,2.66
2022-12-09T13:08:19.785Z,2.65
2022-12-09T13:09:19.714Z,2.51
2022-12-09T13:10:19.712Z,2.53
2022-12-09T13:11:19.694Z,2.56
2022-12-09T13:12:19.678Z,2.62
2022-12-09T13:13:19.665Z,2.66
2022-12-09T13:14:19.676Z,2.73
2022-12-09T13:15:21.556Z,2.87
2022-12-09T13:16:19.738Z,2.89
2022-12-09T13:17:19.624Z,2.90
2022-12-09T13:18:19.615Z,2.98
2022-12-09T13:19:19.607Z,2.90